createdAt,value
2023-03-10T00:00:54.340Z,251.40
2023-03-10T00:01:54.498Z,245.80
2023-03-10T00:02:54.671Z,259.60
2023-03-10T00:03:54.822Z,260.70
2023-03-10T00:04:55.050Z,253.00
2023-03-10T00:05:55.254Z,257.50
2023-03-10T00:06:55.393Z,261.40
2023-03-10T00:07:55.555Z,258.40
2023-03-10T00:08:55.723Z,245.40
2023-03-10T00:09:55.884Z,252.20
2023-03-10T00:10:56.042Z,244.90
2023-03-10T00:11:56.207Z,258.30
2023-03-10T00:12:56.380Z,241.60
2023-03-10T00:13:56.530Z,257.00
2023-03-10T00:14:56.675Z,251.00
2023-03-10T00:15:56.865Z,246.40
2023-03-10T00:16:57.039Z,248.10
2023-03-10T00:17:57.200Z,248.20
2023-03-10T00:18:57.376Z,253.80
2023-03-10T00:19:57.532Z,252.00
2023-03-10T00:20:57.701Z,255.80
2023-03-10T00:21:57.864Z,264.80
2023-03-10T00:22:58.036Z,277.70
2023-03-10T00:23:58.191Z,254.00
2023-03-10T00:24:58.371Z,265.80
2023-03-10T00:25:58.532Z,266.40
2023-03-10T00:26:58.686Z,267.50
2023-03-10T00:27:58.856Z,266.60
2023-03-10T00:28:59.015Z,263.80
2023-03-10T00:29:59.160Z,262.30
2023-03-10T00:30:59.371Z,255.80
2023-03-10T00:31:59.444Z,253.90
2023-03-10T00:32:59.617Z,250.10
2023-03-10T00:33:59.765Z,256.40
2023-03-10T00:34:59.929Z,250.90
2023-03-10T00:36:00.149Z,243.30
2023-03-10T00:37:00.211Z,248.40
2023-03-10T00:38:00.370Z,251.60
2023-03-10T00:39:00.533Z,249.40
2023-03-10T00:40:00.718Z,268.60
2023-03-10T00:41:00.852Z,265.70
2023-03-10T00:42:01.019Z,269.30
2023-03-10T00:43:01.211Z,255.60
2023-03-10T00:44:01.372Z,253.10
2023-03-10T00:45:01.522Z,247.50
2023-03-10T00:46:01.748Z,255.60
2023-03-10T00:47:01.882Z,239.70
2023-03-10T00:48:02.048Z,248.20
2023-03-10T00:49:02.249Z,239.80
2023-03-10T00:50:02.387Z,236.60
2023-03-10T00:51:02.547Z,232.90
2023-03-10T00:52:02.696Z,237.30
2023-03-10T00:53:02.864Z,222.20
2023-03-10T00:54:03.017Z,223.70
2023-03-10T00:55:03.187Z,226.40
2023-03-10T00:56:03.347Z,221.60
2023-03-10T00:57:03.514Z,216.30
2023-03-10T00:58:03.666Z,228.00
2023-03-10T00:59:03.829Z,228.70
2023-03-10T01:00:03.992Z,227.30
2023-03-10T01:01:04.150Z,228.80
2023-03-10T01:02:04.352Z,238.50
2023-03-10T01:03:04.550Z,228.70
2023-03-10T01:04:04.789Z,229.70
2023-03-10T01:05:04.837Z,233.60
2023-03-10T01:06:04.992Z,228.60
2023-03-10T01:07:05.172Z,232.10
2023-03-10T01:08:05.322Z,237.70
2023-03-10T01:09:05.523Z,234.20
2023-03-10T01:10:05.671Z,239.10
2023-03-10T01:11:05.831Z,240.10
2023-03-10T01:12:05.990Z,241.00
2023-03-10T01:13:06.162Z,227.10
2023-03-10T01:14:06.307Z,231.10
2023-03-10T01:15:06.470Z,236.20
2023-03-10T01:16:06.662Z,225.80
2023-03-10T01:17:06.852Z,246.10
2023-03-10T01:18:06.997Z,251.80
2023-03-10T01:19:07.159Z,242.30
2023-03-10T01:20:07.340Z,239.30
2023-03-10T01:21:07.492Z,255.20
2023-03-10T01:22:07.671Z,253.10
2023-03-10T01:23:07.837Z,252.80
2023-03-10T01:24:07.997Z,267.50
2023-03-10T01:25:08.158Z,292.40
2023-03-10T01:26:08.305Z,301.90
2023-03-10T01:27:08.500Z,304.80
2023-03-10T01:28:08.663Z,341.40
2023-03-10T01:29:08.832Z,347.80
2023-03-10T01:30:09.008Z,343.30
2023-03-10T01:31:09.188Z,354.30
2023-03-10T01:32:09.379Z,345.70
2023-03-10T01:33:09.531Z,377.00
2023-03-10T01:34:09.690Z,373.00
2023-03-10T01:35:09.852Z,376.90
2023-03-10T01:36:10.072Z,363.50
2023-03-10T01:37:10.129Z,372.20
2023-03-10T01:38:10.298Z,345.40
2023-03-10T01:39:10.451Z,328.10
2023-03-10T01:40:10.604Z,351.90
2023-03-10T01:41:10.772Z,333.20
2023-03-10T01:42:10.927Z,309.90
2023-03-10T01:43:11.104Z,316.00
2023-03-10T01:44:11.251Z,320.60
2023-03-10T01:45:11.406Z,336.40
2023-03-10T01:46:11.592Z,303.90
2023-03-10T01:47:11.725Z,287.90
2023-03-10T01:48:11.897Z,301.30
2023-03-10T01:49:12.049Z,287.00
2023-03-10T01:50:12.201Z,301.60
2023-03-10T01:51:12.353Z,296.10
2023-03-10T01:52:12.510Z,305.70
2023-03-10T01:53:12.673Z,286.10
2023-03-10T01:54:12.827Z,286.00
2023-03-10T01:55:12.992Z,277.80
2023-03-10T01:56:13.157Z,292.00
2023-03-10T01:57:13.284Z,279.20
2023-03-10T01:58:13.449Z,270.50
2023-03-10T01:59:13.621Z,269.30
2023-03-10T02:00:13.780Z,277.40
2023-03-10T02:01:14.018Z,283.40
2023-03-10T02:02:14.112Z,262.30
2023-03-10T02:03:14.309Z,267.00
2023-03-10T02:04:14.362Z,270.60
2023-03-10T02:05:14.532Z,254.40
2023-03-10T02:06:14.679Z,257.10
2023-03-10T02:07:14.855Z,260.10
2023-03-10T02:08:15.040Z,249.60
2023-03-10T02:09:15.200Z,250.80
2023-03-10T02:10:15.370Z,274.80
2023-03-10T02:11:15.545Z,275.30
2023-03-10T02:12:15.717Z,272.80
2023-03-10T02:13:15.872Z,268.00
2023-03-10T02:14:16.030Z,281.50
2023-03-10T02:15:16.197Z,257.80
2023-03-10T02:16:16.398Z,260.60
2023-03-10T02:17:16.569Z,285.90
2023-03-10T02:18:16.744Z,272.20
2023-03-10T02:19:16.916Z,265.50
2023-03-10T02:20:17.084Z,274.20
2023-03-10T02:21:17.258Z,281.40
2023-03-10T02:22:17.450Z,273.60
2023-03-10T02:23:17.643Z,300.40
2023-03-10T02:24:17.800Z,251.00
2023-03-10T02:25:17.997Z,265.40
2023-03-10T02:26:18.186Z,265.30
2023-03-10T02:27:18.440Z,265.30
2023-03-10T02:28:18.553Z,268.00
2023-03-10T02:29:18.597Z,256.10
2023-03-10T02:30:18.767Z,258.00
2023-03-10T02:31:19.069Z,250.20
2023-03-10T02:32:19.179Z,259.00
2023-03-10T02:33:19.300Z,238.50
2023-03-10T02:34:19.377Z,252.30
2023-03-10T02:35:19.534Z,275.00
2023-03-10T02:36:19.684Z,285.90
2023-03-10T02:37:19.870Z,264.10
2023-03-10T02:38:20.068Z,281.90
2023-03-10T02:39:20.344Z,279.30
2023-03-10T02:40:20.501Z,300.40
2023-03-10T02:41:20.570Z,282.40
2023-03-10T02:42:20.730Z,272.50
2023-03-10T02:43:20.938Z,291.50
2023-03-10T02:44:21.014Z,289.30
2023-03-10T02:45:21.290Z,313.80
2023-03-10T02:46:21.384Z,289.10
2023-03-10T02:47:21.538Z,312.70
2023-03-10T02:48:21.708Z,311.30
2023-03-10T02:49:21.886Z,308.60
2023-03-10T02:50:22.019Z,313.60
2023-03-10T02:51:22.192Z,323.60
2023-03-10T02:52:22.370Z,316.30
2023-03-10T02:53:22.532Z,298.60
2023-03-10T02:54:22.680Z,306.30
2023-03-10T02:55:22.842Z,289.70
2023-03-10T02:56:22.993Z,305.60
2023-03-10T02:57:23.172Z,303.80
2023-03-10T02:58:23.322Z,314.80
2023-03-10T02:59:23.491Z,318.90
2023-03-10T03:00:23.633Z,283.80
2023-03-10T03:01:23.881Z,293.10
2023-03-10T03:02:23.907Z,290.70
2023-03-10T03:03:24.096Z,289.10
2023-03-10T03:04:24.254Z,284.90
2023-03-10T03:05:24.427Z,277.40
2023-03-10T03:06:24.560Z,297.90
2023-03-10T03:07:24.716Z,288.40
2023-03-10T03:08:24.973Z,294.20
2023-03-10T03:09:25.022Z,263.80
2023-03-10T03:10:25.230Z,269.10
2023-03-10T03:11:25.311Z,274.90
2023-03-10T03:12:25.460Z,283.30
2023-03-10T03:13:25.636Z,280.00
2023-03-10T03:14:25.798Z,274.60
2023-03-10T03:15:25.965Z,291.70
2023-03-10T03:16:26.171Z,265.10
2023-03-10T03:17:26.298Z,266.60
2023-03-10T03:18:26.473Z,285.80
2023-03-10T03:19:29.378Z,286.10
2023-03-10T03:20:26.799Z,293.20
2023-03-10T03:21:27.068Z,290.90
2023-03-10T03:22:27.123Z,305.40
2023-03-10T03:23:27.291Z,288.00
2023-03-10T03:24:27.456Z,281.30
2023-03-10T03:25:27.637Z,301.20
2023-03-10T03:26:27.790Z,310.40
2023-03-10T03:27:27.958Z,278.30
2023-03-10T03:28:28.124Z,293.70
2023-03-10T03:29:28.294Z,271.20
2023-03-10T03:30:28.470Z,274.60
2023-03-10T03:31:35.653Z,291.80
2023-03-10T03:32:28.867Z,331.70
2023-03-10T03:33:31.623Z,311.10
2023-03-10T03:34:29.922Z,323.40
2023-03-10T03:35:29.355Z,296.90
2023-03-10T03:36:29.502Z,284.30
2023-03-10T03:37:29.692Z,287.70
2023-03-10T03:38:29.857Z,305.40
2023-03-10T03:39:30.101Z,290.00
2023-03-10T03:40:30.153Z,282.50
2023-03-10T03:41:30.319Z,276.20
2023-03-10T03:42:30.480Z,284.60
2023-03-10T03:43:30.647Z,277.00
2023-03-10T03:44:30.802Z,280.30
2023-03-10T03:45:30.971Z,298.90
2023-03-10T03:46:31.176Z,263.40
2023-03-10T03:47:31.345Z,264.50
2023-03-10T03:48:31.522Z,277.20
2023-03-10T03:49:31.691Z,269.70
2023-03-10T03:50:31.847Z,270.70
2023-03-10T03:51:32.013Z,284.00
2023-03-10T03:52:32.159Z,247.00
2023-03-10T03:53:32.337Z,264.50
2023-03-10T03:54:32.500Z,262.20
2023-03-10T03:55:32.663Z,263.90
2023-03-10T03:56:32.823Z,253.20
2023-03-10T03:57:32.994Z,252.10
2023-03-10T03:58:33.161Z,266.20
2023-03-10T03:59:33.343Z,265.10
2023-03-10T04:00:33.491Z,272.20
2023-03-10T04:01:33.671Z,271.80
2023-03-10T04:02:33.863Z,268.60
2023-03-10T04:03:34.052Z,252.60
2023-03-10T04:04:34.182Z,247.00
2023-03-10T04:05:34.341Z,260.30
2023-03-10T04:06:34.488Z,274.40
2023-03-10T04:07:34.653Z,263.60
2023-03-10T04:08:34.804Z,252.10
2023-03-10T04:09:34.961Z,266.00
2023-03-10T04:10:35.108Z,272.40
2023-03-10T04:11:35.278Z,254.10
2023-03-10T04:12:35.422Z,248.60
2023-03-10T04:13:35.595Z,259.40
2023-03-10T04:14:35.742Z,259.00
2023-03-10T04:15:35.938Z,238.30
2023-03-10T04:16:36.020Z,264.90
2023-03-10T04:17:36.184Z,257.70
2023-03-10T04:18:36.331Z,293.50
2023-03-10T04:19:36.492Z,256.20
2023-03-10T04:20:36.668Z,245.10
2023-03-10T04:21:36.823Z,268.90
2023-03-10T04:22:36.977Z,256.80
2023-03-10T04:23:37.151Z,254.00
2023-03-10T04:24:37.303Z,260.30
2023-03-10T04:25:37.474Z,242.90
2023-03-10T04:26:37.620Z,234.80
2023-03-10T04:27:37.780Z,245.10
2023-03-10T04:28:37.955Z,256.20
2023-03-10T04:29:38.128Z,256.40
2023-03-10T04:30:38.318Z,246.60
2023-03-10T04:31:38.636Z,266.40
2023-03-10T04:32:38.716Z,255.10
2023-03-10T04:33:38.773Z,250.70
2023-03-10T04:34:38.962Z,257.50
2023-03-10T04:35:39.164Z,262.20
2023-03-10T04:36:39.311Z,263.60
2023-03-10T04:37:39.482Z,286.40
2023-03-10T04:38:39.644Z,267.70
2023-03-10T04:39:39.809Z,256.10
2023-03-10T04:40:39.981Z,241.90
2023-03-10T04:41:40.182Z,284.50
2023-03-10T04:42:40.356Z,258.60
2023-03-10T04:43:42.693Z,240.40
2023-03-10T04:44:40.641Z,270.00
2023-03-10T04:45:40.792Z,276.10
2023-03-10T04:46:41.009Z,277.50
2023-03-10T04:47:41.058Z,284.50
2023-03-10T04:48:41.252Z,277.80
2023-03-10T04:49:41.409Z,278.40
2023-03-10T04:50:41.580Z,278.30
2023-03-10T04:51:41.735Z,266.40
2023-03-10T04:52:41.908Z,269.70
2023-03-10T04:53:42.094Z,248.80
2023-03-10T04:54:42.244Z,264.20
2023-03-10T04:55:42.391Z,264.40
2023-03-10T04:56:42.566Z,267.40
2023-03-10T04:57:42.738Z,276.90
2023-03-10T04:58:42.954Z,266.90
2023-03-10T04:59:43.023Z,289.90
2023-03-10T05:01:00.374Z,261.00
2023-03-10T05:01:44.413Z,276.90
2023-03-10T05:02:43.484Z,261.30
2023-03-10T05:03:43.687Z,278.50
2023-03-10T05:04:43.961Z,263.30
2023-03-10T05:05:44.052Z,323.10
2023-03-10T05:06:45.182Z,263.10
2023-03-10T05:07:44.364Z,296.60
2023-03-10T05:08:44.566Z,277.70
2023-03-10T05:09:44.758Z,252.00
2023-03-10T05:10:44.961Z,270.50
2023-03-10T05:11:45.156Z,245.30
2023-03-10T05:12:45.356Z,275.10
2023-03-10T05:13:45.563Z,276.30
2023-03-10T05:14:45.787Z,270.70
2023-03-10T05:15:45.934Z,284.70
2023-03-10T05:16:46.040Z,292.10
2023-03-10T05:17:48.830Z,279.40
2023-03-10T05:18:46.405Z,276.10
2023-03-10T05:19:46.596Z,304.90
2023-03-10T05:20:46.795Z,291.90
2023-03-10T05:21:46.994Z,249.90
2023-03-10T05:22:47.167Z,265.60
2023-03-10T05:23:47.347Z,234.40
2023-03-10T05:24:47.512Z,272.90
2023-03-10T05:25:47.682Z,274.20
2023-03-10T05:26:47.862Z,283.80
2023-03-10T05:27:48.037Z,278.80
2023-03-10T05:28:48.209Z,266.60
2023-03-10T05:29:48.370Z,276.60
2023-03-10T05:30:48.549Z,265.10
2023-03-10T05:31:48.773Z,261.50
2023-03-10T05:32:48.916Z,277.40
2023-03-10T05:33:48.974Z,265.80
2023-03-10T05:34:49.154Z,250.70
2023-03-10T05:35:49.333Z,254.30
2023-03-10T05:36:49.493Z,275.60
2023-03-10T05:37:49.661Z,255.10
2023-03-10T05:38:49.875Z,283.10
2023-03-10T05:39:50.038Z,279.30
2023-03-10T05:40:50.224Z,307.30
2023-03-10T05:41:50.393Z,276.10
2023-03-10T05:42:50.568Z,273.00
2023-03-10T05:43:50.769Z,273.20
2023-03-10T05:44:50.928Z,278.90
2023-03-10T05:45:51.088Z,271.80
2023-03-10T05:46:51.326Z,297.60
2023-03-10T05:47:51.361Z,288.10
2023-03-10T05:48:51.564Z,280.30
2023-03-10T05:49:51.729Z,270.60
2023-03-10T05:50:51.963Z,283.00
2023-03-10T05:51:52.083Z,267.90
2023-03-10T05:52:52.265Z,255.80
2023-03-10T05:53:52.445Z,269.50
2023-03-10T05:54:52.621Z,260.60
2023-03-10T05:55:52.826Z,252.00
2023-03-10T05:56:53.002Z,275.40
2023-03-10T05:57:53.183Z,260.40
2023-03-10T05:58:53.391Z,266.00
2023-03-10T05:59:53.551Z,263.10
2023-03-10T06:00:53.773Z,268.60
2023-03-10T06:01:53.931Z,281.70
2023-03-10T06:02:54.147Z,250.30
2023-03-10T06:03:54.407Z,265.00
2023-03-10T06:04:54.472Z,297.70
2023-03-10T06:05:54.668Z,291.30
2023-03-10T06:06:54.865Z,293.90
2023-03-10T06:07:55.034Z,282.30
2023-03-10T06:08:55.240Z,274.30
2023-03-10T06:09:55.399Z,296.00
2023-03-10T06:10:55.596Z,297.90
2023-03-10T06:11:55.738Z,297.40
2023-03-10T06:12:55.918Z,300.70
2023-03-10T06:13:56.120Z,262.20
2023-03-10T06:14:56.297Z,260.80
2023-03-10T06:15:56.494Z,259.60
2023-03-10T06:16:56.697Z,289.30
2023-03-10T06:17:56.879Z,287.60
2023-03-10T06:18:57.113Z,298.50
2023-03-10T06:19:57.305Z,290.90
2023-03-10T06:20:57.491Z,268.30
2023-03-10T06:21:57.656Z,266.30
2023-03-10T06:22:57.835Z,277.10
2023-03-10T06:23:58.036Z,317.30
2023-03-10T06:24:58.224Z,270.80
2023-03-10T06:25:58.390Z,312.90
2023-03-10T06:26:58.583Z,296.00
2023-03-10T06:27:58.757Z,292.80
2023-03-10T06:28:58.961Z,296.40
2023-03-10T06:29:59.136Z,281.80
2023-03-10T06:30:59.316Z,276.50
2023-03-10T06:31:59.523Z,323.00
2023-03-10T06:32:59.746Z,290.20
2023-03-10T06:34:00.797Z,285.10
2023-03-10T06:34:59.944Z,289.30
2023-03-10T06:36:00.208Z,273.00
2023-03-10T06:37:00.253Z,304.70
2023-03-10T06:38:00.418Z,296.10
2023-03-10T06:39:00.605Z,293.00
2023-03-10T06:40:00.787Z,289.70
2023-03-10T06:41:00.954Z,291.60
2023-03-10T06:42:01.132Z,297.80
2023-03-10T06:43:01.283Z,293.30
2023-03-10T06:44:01.461Z,286.50
2023-03-10T06:45:01.652Z,295.50
2023-03-10T06:46:01.852Z,320.80
2023-03-10T06:47:02.023Z,296.10
2023-03-10T06:48:02.192Z,305.20
2023-03-10T06:49:02.394Z,304.00
2023-03-10T06:50:02.551Z,318.60
2023-03-10T06:51:02.736Z,298.70
2023-03-10T06:52:02.909Z,337.60
2023-03-10T06:53:03.068Z,315.00
2023-03-10T06:54:03.256Z,304.10
2023-03-10T06:55:03.435Z,304.80
2023-03-10T06:56:03.594Z,317.20
2023-03-10T06:57:03.760Z,366.20
2023-03-10T06:58:03.943Z,303.40
2023-03-10T06:59:04.140Z,309.00
2023-03-10T07:00:04.301Z,298.90
2023-03-10T07:01:04.526Z,305.70
2023-03-10T07:02:04.662Z,322.30
2023-03-10T07:03:04.832Z,319.90
2023-03-10T07:04:05.031Z,318.80
2023-03-10T07:05:05.299Z,294.30
2023-03-10T07:06:05.366Z,322.90
2023-03-10T07:07:05.528Z,301.90
2023-03-10T07:08:05.754Z,283.80
2023-03-10T07:09:05.844Z,331.60
2023-03-10T07:10:08.174Z,331.90
2023-03-10T07:11:06.197Z,312.30
2023-03-10T07:12:06.350Z,267.50
2023-03-10T07:13:06.525Z,285.90
2023-03-10T07:14:06.700Z,322.70
2023-03-10T07:15:06.876Z,291.10
2023-03-10T07:16:07.043Z,295.80
2023-03-10T07:17:07.300Z,275.90
2023-03-10T07:18:07.409Z,310.20
2023-03-10T07:19:07.589Z,294.60
2023-03-10T07:20:07.735Z,312.00
2023-03-10T07:21:07.924Z,306.20
2023-03-10T07:22:10.343Z,291.20
2023-03-10T07:23:08.168Z,320.60
2023-03-10T07:24:08.363Z,300.20
2023-03-10T07:25:08.443Z,295.80
2023-03-10T07:26:08.599Z,320.40
2023-03-10T07:27:08.762Z,279.60
2023-03-10T07:28:08.922Z,310.80
2023-03-10T07:29:09.105Z,289.20
2023-03-10T07:30:09.249Z,267.50
2023-03-10T07:31:09.524Z,296.30
2023-03-10T07:32:09.584Z,288.60
2023-03-10T07:33:09.711Z,277.10
2023-03-10T07:34:09.886Z,282.20
2023-03-10T07:35:10.062Z,277.70
2023-03-10T07:36:10.286Z,278.80
2023-03-10T07:37:10.335Z,299.70
2023-03-10T07:38:10.548Z,279.00
2023-03-10T07:39:10.623Z,287.80
2023-03-10T07:40:10.775Z,288.10
2023-03-10T07:41:10.939Z,285.10
2023-03-10T07:42:11.078Z,275.40
2023-03-10T07:43:11.238Z,309.50
2023-03-10T07:44:11.415Z,295.60
2023-03-10T07:45:11.566Z,298.50
2023-03-10T07:46:11.732Z,302.00
2023-03-10T07:47:11.873Z,296.20
2023-03-10T07:48:12.895Z,292.90
2023-03-10T07:49:12.147Z,289.60
2023-03-10T07:50:12.292Z,292.80
2023-03-10T07:51:12.492Z,299.60
2023-03-10T07:52:12.629Z,305.40
2023-03-10T07:53:12.783Z,307.30
2023-03-10T07:54:12.977Z,312.30
2023-03-10T07:55:13.116Z,320.20
2023-03-10T07:56:13.263Z,329.20
2023-03-10T07:57:13.902Z,309.40
2023-03-10T07:58:13.486Z,302.40
2023-03-10T07:59:13.667Z,306.20
2023-03-10T08:00:13.806Z,322.20
2023-03-10T08:01:13.976Z,319.90
2023-03-10T08:02:14.096Z,315.00
2023-03-10T08:03:14.253Z,314.70
2023-03-10T08:04:14.582Z,310.50
2023-03-10T08:05:14.642Z,300.70
2023-03-10T08:06:14.680Z,346.20
2023-03-10T08:07:14.832Z,319.90
2023-03-10T08:08:15.527Z,340.30
2023-03-10T08:09:15.128Z,318.00
2023-03-10T08:10:15.247Z,317.00
2023-03-10T08:11:15.410Z,315.10
2023-03-10T08:12:15.518Z,386.50
2023-03-10T08:13:15.672Z,377.60
2023-03-10T08:14:16.290Z,309.50
2023-03-10T08:15:15.972Z,348.90
2023-03-10T08:16:16.665Z,356.00
2023-03-10T08:17:16.282Z,345.50
2023-03-10T08:18:16.386Z,379.50
2023-03-10T08:19:16.523Z,411.90
2023-03-10T08:20:16.632Z,416.90
2023-03-10T08:21:16.728Z,421.40
2023-03-10T08:22:16.827Z,437.10
2023-03-10T08:23:16.936Z,415.80
2023-03-10T08:24:17.070Z,394.70
2023-03-10T08:25:17.163Z,380.70
2023-03-10T08:26:17.233Z,398.00
2023-03-10T08:27:17.319Z,441.50
2023-03-10T08:28:17.411Z,418.80
2023-03-10T08:29:17.495Z,383.50
2023-03-10T08:30:17.573Z,410.70
2023-03-10T08:31:17.709Z,396.10
2023-03-10T08:32:17.845Z,368.70
2023-03-10T08:33:17.914Z,409.80
2023-03-10T08:34:18.015Z,415.70
2023-03-10T08:35:18.137Z,394.60
2023-03-10T08:36:18.264Z,386.20
2023-03-10T08:37:18.329Z,388.40
2023-03-10T08:38:18.542Z,398.70
2023-03-10T08:39:18.641Z,380.40
2023-03-10T08:40:18.757Z,374.70
2023-03-10T08:41:19.148Z,357.80
2023-03-10T08:42:18.979Z,408.70
2023-03-10T08:43:19.061Z,400.00
2023-03-10T08:44:19.170Z,403.10
2023-03-10T08:45:19.297Z,388.40
2023-03-10T08:46:19.988Z,401.90
2023-03-10T08:47:19.511Z,385.30
2023-03-10T08:48:19.679Z,407.70
2023-03-10T08:49:19.777Z,403.00
2023-03-10T08:50:19.867Z,390.90
2023-03-10T08:51:20.243Z,395.40
2023-03-10T08:52:20.082Z,389.90
2023-03-10T08:53:20.149Z,390.00
2023-03-10T08:54:20.256Z,362.70
2023-03-10T08:55:20.293Z,385.00
2023-03-10T08:56:20.734Z,399.30
2023-03-10T08:57:20.551Z,383.60
2023-03-10T08:58:20.750Z,368.80
2023-03-10T08:59:20.809Z,356.70
2023-03-10T09:00:21.013Z,361.40
2023-03-10T09:01:21.052Z,350.70
2023-03-10T09:02:21.281Z,363.00
2023-03-10T09:03:21.311Z,340.40
2023-03-10T09:04:21.376Z,351.60
2023-03-10T09:05:21.911Z,307.30
2023-03-10T09:06:21.593Z,325.50
2023-03-10T09:07:21.765Z,315.00
2023-03-10T09:08:21.790Z,317.70
2023-03-10T09:09:21.933Z,305.40
2023-03-10T09:10:22.051Z,297.00
2023-03-10T09:11:22.133Z,310.90
2023-03-10T09:12:22.259Z,303.50
2023-03-10T09:13:22.368Z,335.90
2023-03-10T09:14:22.488Z,301.80
2023-03-10T09:15:22.594Z,284.20
2023-03-10T09:16:22.753Z,323.60
2023-03-10T09:17:22.846Z,305.70
2023-03-10T09:18:22.946Z,477.40
2023-03-10T09:19:23.079Z,273.80
2023-03-10T09:20:23.176Z,302.40
2023-03-10T09:21:23.275Z,288.50
2023-03-10T09:22:23.374Z,298.00
2023-03-10T09:23:23.487Z,282.60
2023-03-10T09:24:23.614Z,300.80
2023-03-10T09:25:23.714Z,299.30
2023-03-10T09:26:23.837Z,322.90
2023-03-10T09:27:23.944Z,257.50
2023-03-10T09:28:24.065Z,270.80
2023-03-10T09:29:41.794Z,234.20
2023-03-10T09:30:25.234Z,224.40
2023-03-10T09:32:22.767Z,264.40
2023-03-10T09:33:22.753Z,260.90
2023-03-10T09:34:22.884Z,251.60
2023-03-10T09:35:23.101Z,225.80
2023-03-10T09:36:23.200Z,221.50
2023-03-10T09:37:23.218Z,237.90
2023-03-10T09:38:23.361Z,219.90
2023-03-10T09:39:23.513Z,213.90
2023-03-10T09:40:23.740Z,234.70
2023-03-10T09:41:23.745Z,303.80
2023-03-10T09:42:36.423Z,253.80
2023-03-10T09:43:24.959Z,253.90
2023-03-10T09:44:24.106Z,228.40
2023-03-10T09:45:24.238Z,224.20
2023-03-10T09:46:24.385Z,207.50
2023-03-10T09:47:24.496Z,222.20
2023-03-10T09:48:26.360Z,235.50
2023-03-10T09:49:24.802Z,249.80
2023-03-10T09:50:24.948Z,254.30
2023-03-10T09:51:25.089Z,229.70
2023-03-10T09:52:25.221Z,264.50
2023-03-10T09:53:25.358Z,297.60
2023-03-10T09:54:25.512Z,261.70
2023-03-10T09:55:25.666Z,306.60
2023-03-10T09:56:25.802Z,259.00
2023-03-10T09:57:25.944Z,291.50
2023-03-10T09:58:26.087Z,289.60
2023-03-10T09:59:26.240Z,271.50
2023-03-10T10:00:26.379Z,276.40
2023-03-10T10:01:26.523Z,297.30
2023-03-10T10:02:26.657Z,268.70
2023-03-10T10:03:26.792Z,302.20
2023-03-10T10:04:27.005Z,311.00
2023-03-10T10:05:27.012Z,289.00
2023-03-10T10:06:28.688Z,293.40
2023-03-10T10:07:27.299Z,281.60
2023-03-10T10:08:28.947Z,326.60
2023-03-10T10:09:27.627Z,302.30
2023-03-10T10:10:27.754Z,281.70
2023-03-10T10:11:27.887Z,289.80
2023-03-10T10:12:28.024Z,271.60
2023-03-10T10:13:28.149Z,294.10
2023-03-10T10:14:30.544Z,279.60
2023-03-10T10:15:28.366Z,263.60
2023-03-10T10:16:34.610Z,235.60
2023-03-10T10:17:29.684Z,237.50
2023-03-10T10:18:28.913Z,203.20
2023-03-10T10:19:28.880Z,233.00
2023-03-10T10:20:29.080Z,243.40
2023-03-10T10:21:40.427Z,224.60
2023-03-10T10:22:30.305Z,243.30
2023-03-10T10:23:29.453Z,226.70
2023-03-10T10:24:29.613Z,235.00
2023-03-10T10:25:29.748Z,220.80
2023-03-10T10:26:29.900Z,205.10
2023-03-10T10:27:30.041Z,202.40
2023-03-10T10:28:30.190Z,231.40
2023-03-10T10:29:30.298Z,230.30
2023-03-10T10:30:30.514Z,244.90
2023-03-10T10:31:30.610Z,229.90
2023-03-10T10:32:30.687Z,216.10
2023-03-10T10:33:30.793Z,215.40
2023-03-10T10:34:30.951Z,216.20
2023-03-10T10:35:31.074Z,201.50
2023-03-10T10:36:31.242Z,236.50
2023-03-10T10:37:31.373Z,219.50
2023-03-10T10:38:31.513Z,207.70
2023-03-10T10:39:31.679Z,200.40
2023-03-10T10:40:31.820Z,208.00
2023-03-10T10:41:31.955Z,213.20
2023-03-10T10:42:32.084Z,223.50
2023-03-10T10:43:33.616Z,189.90
2023-03-10T10:44:32.426Z,180.60
2023-03-10T10:45:32.564Z,191.10
2023-03-10T10:46:32.844Z,182.70
2023-03-10T10:47:32.890Z,172.10
2023-03-10T10:48:32.995Z,173.80
2023-03-10T10:49:33.146Z,166.80
2023-03-10T10:50:33.281Z,151.80
2023-03-10T10:51:33.420Z,151.70
2023-03-10T10:52:33.560Z,141.30
2023-03-10T10:53:33.682Z,165.70
2023-03-10T10:54:33.865Z,154.90
2023-03-10T10:55:34.011Z,150.60
2023-03-10T10:56:34.150Z,145.00
2023-03-10T10:57:34.275Z,136.00
2023-03-10T10:58:34.433Z,132.20
2023-03-10T10:59:34.565Z,142.50
2023-03-10T11:00:34.711Z,142.70
2023-03-10T11:01:34.872Z,141.10
2023-03-10T11:02:35.131Z,145.00
2023-03-10T11:03:35.128Z,138.70
2023-03-10T11:04:35.321Z,141.50
2023-03-10T11:05:35.432Z,145.00
2023-03-10T11:06:35.558Z,151.00
2023-03-10T11:07:35.690Z,153.50
2023-03-10T11:08:35.832Z,154.30
2023-03-10T11:09:35.978Z,157.20
2023-03-10T11:10:36.119Z,175.20
2023-03-10T11:11:36.278Z,157.60
2023-03-10T11:12:36.461Z,157.40
2023-03-10T11:13:36.576Z,149.00
2023-03-10T11:14:36.725Z,177.10
2023-03-10T11:15:36.938Z,173.50
2023-03-10T11:16:36.994Z,179.70
2023-03-10T11:17:37.134Z,181.90
2023-03-10T11:18:37.273Z,186.20
2023-03-10T11:19:37.423Z,214.80
2023-03-10T11:20:37.554Z,191.90
2023-03-10T11:21:37.690Z,212.60
2023-03-10T11:22:37.818Z,217.30
2023-03-10T11:23:37.969Z,208.70
2023-03-10T11:24:38.143Z,221.90
2023-03-10T11:25:38.292Z,227.10
2023-03-10T11:26:38.412Z,203.40
2023-03-10T11:27:38.568Z,201.80
2023-03-10T11:28:38.692Z,197.60
2023-03-10T11:29:38.928Z,212.80
2023-03-10T11:30:39.105Z,222.00
2023-03-10T11:31:39.201Z,224.90
2023-03-10T11:32:39.379Z,202.50
2023-03-10T11:33:39.439Z,206.70
2023-03-10T11:34:39.600Z,196.30
2023-03-10T11:35:39.750Z,210.90
2023-03-10T11:36:53.263Z,193.10
2023-03-10T11:37:41.020Z,196.00
2023-03-10T11:38:40.223Z,214.10
2023-03-10T11:39:40.293Z,204.70
2023-03-10T11:40:40.429Z,185.10
2023-03-10T11:41:40.572Z,204.50
2023-03-10T11:42:40.745Z,206.10
2023-03-10T11:43:40.911Z,203.00
2023-03-10T11:44:41.057Z,199.90
2023-03-10T11:45:41.221Z,185.40
2023-03-10T11:46:41.444Z,199.40
2023-03-10T11:47:42.059Z,186.60
2023-03-10T11:48:41.701Z,178.70
2023-03-10T11:49:41.870Z,205.40
2023-03-10T11:50:42.018Z,190.60
2023-03-10T11:51:42.198Z,213.50
2023-03-10T11:52:42.344Z,193.70
2023-03-10T11:53:42.496Z,204.10
2023-03-10T11:54:42.653Z,197.90
2023-03-10T11:55:42.804Z,199.10
2023-03-10T11:56:42.969Z,184.20
2023-03-10T11:57:43.127Z,200.40
2023-03-10T11:58:43.327Z,199.20
2023-03-10T11:59:43.479Z,202.20
2023-03-10T12:00:43.615Z,209.30
2023-03-10T12:01:43.773Z,212.90
2023-03-10T12:02:43.903Z,205.10
2023-03-10T12:03:44.137Z,212.60
2023-03-10T12:04:44.220Z,222.60
2023-03-10T12:05:44.402Z,199.00
2023-03-10T12:06:44.516Z,205.70
2023-03-10T12:07:44.652Z,181.70
2023-03-10T12:08:44.783Z,195.00
2023-03-10T12:09:44.958Z,189.50
2023-03-10T12:10:45.090Z,190.00
2023-03-10T12:11:45.231Z,189.50
2023-03-10T12:12:45.407Z,177.10
2023-03-10T12:13:45.559Z,180.70
2023-03-10T12:14:45.732Z,174.70
2023-03-10T12:15:45.892Z,196.10
2023-03-10T12:16:46.044Z,190.50
2023-03-10T12:17:46.216Z,201.60
2023-03-10T12:18:46.350Z,169.30
2023-03-10T12:19:46.568Z,174.60
2023-03-10T12:20:46.606Z,164.80
2023-03-10T12:21:46.753Z,153.10
2023-03-10T12:22:46.909Z,154.80
2023-03-10T12:23:47.037Z,155.50
2023-03-10T12:24:47.218Z,163.60
2023-03-10T12:25:47.350Z,163.40
2023-03-10T12:26:47.526Z,160.20
2023-03-10T12:27:47.661Z,155.90
2023-03-10T12:28:47.810Z,150.30
2023-03-10T12:29:47.989Z,164.40
2023-03-10T12:30:48.114Z,148.50
2023-03-10T12:31:48.355Z,153.10